Time;durP1;ratioP1;P1;durP2;ratioP2;P2;SDS_P1;SDS_P2;PMS_P1;PMS_P2;Temp;Humidity;BMP_temperature;BMP_pressure;BME280_temperature;BME280_humidity;BME280_pressure;Samples;Min_cycle;Max_cycle;Signal;HPM_P1;HPM_P2
2022/01/28 00:01:02;;;;;;;11.60;6.93;;;;;;;3.73;100.00;99225.56;15334141;19;20280;-53
2022/01/28 00:06:08;;;;;;;10.27;6.77;;;;;;;3.83;100.00;99253.16;15346808;19;20140;-56
2022/01/28 00:11:13;;;;;;;8.13;6.40;;;;;;;3.94;100.00;99251.63;15344036;19;20151;-55
2022/01/28 00:16:51;;;;;;;8.90;6.67;;;;;;;3.95;100.00;99260.41;15323366;19;20145;-53
2022/01/28 00:37:58;;;;;;;8.30;5.43;;;;;;;3.56;100.00;99226.47;15333889;19;20644;-54
2022/01/28 00:42:53;;;;;;;8.43;4.77;;;;;;;3.43;100.00;99241.22;15316585;19;20152;-56
2022/01/28 00:47:59;;;;;;;6.30;4.03;;;;;;;3.42;100.00;99250.06;15343180;19;20148;-54
2022/01/28 00:57:58;;;;;;;5.80;3.77;;;;;;;3.43;100.00;99238.56;15189007;19;2966314;-51
2022/01/28 01:03:02;;;;;;;7.17;3.90;;;;;;;3.46;100.00;99231.38;15313763;19;20621;-51
2022/01/28 01:08:08;;;;;;;8.03;3.47;;;;;;;3.43;100.00;99228.03;15331675;19;20636;-51
2022/01/28 01:13:13;;;;;;;7.20;3.60;;;;;;;3.23;100.00;99202.72;15346249;19;20264;-55
2022/01/28 01:18:22;;;;;;;5.03;3.07;;;;;;;3.17;100.00;99203.88;15345415;19;20147;-52
2022/01/28 01:23:30;;;;;;;5.33;2.70;;;;;;;3.25;100.00;99185.91;15325293;19;20223;-52
2022/01/28 01:28:38;;;;;;;5.03;2.73;;;;;;;3.34;100.00;99179.28;15319633;19;20158;-54
2022/01/28 01:33:48;;;;;;;5.13;2.50;;;;;;;3.42;100.00;99170.94;15343327;19;20235;-52
2022/01/28 01:38:53;;;;;;;6.53;2.90;;;;;;;3.52;100.00;99169.53;15343658;19;20150;-50
2022/01/28 01:44:02;;;;;;;5.93;2.17;;;;;;;3.62;100.00;99139.09;15337468;19;20179;-51
2022/01/28 01:54:26;;;;;;;4.10;2.50;;;;;;;3.74;100.00;99140.22;15335216;19;20179;-52
2022/01/28 02:04:25;;;;;;;5.67;2.90;;;;;;;3.77;100.00;99140.88;15187766;19;2967916;-54
2022/01/28 02:09:30;;;;;;;6.30;3.10;;;;;;;3.80;100.00;99114.31;15317825;19;20157;-56
2022/01/28 02:19:33;;;;;;;6.13;3.20;;;;;;;3.82;100.00;99098.41;15341080;19;20470;-51
2022/01/28 02:24:42;;;;;;;8.23;3.70;;;;;;;3.78;100.00;99081.91;15346698;19;20154;-55
2022/01/28 02:29:49;;;;;;;5.47;3.30;;;;;;;3.79;100.00;99075.69;15333644;19;20149;-52
2022/01/28 02:39:48;;;;;;;5.10;2.50;;;;;;;3.68;100.00;99083.34;15186802;19;2962179;-53
2022/01/28 02:44:55;;;;;;;6.87;2.37;;;;;;;3.56;100.00;99070.84;15345961;19;20743;-52
2022/01/28 02:50:00;;;;;;;6.70;2.10;;;;;;;3.21;100.00;99084.19;15346615;19;20167;-55
2022/01/28 02:55:10;;;;;;;5.17;2.10;;;;;;;3.12;100.00;99074.16;15311955;19;20162;-53
2022/01/28 03:00:15;;;;;;;4.40;2.47;;;;;;;3.10;100.00;99060.19;15332544;19;20148;-54
2022/01/28 03:05:31;;;;;;;6.07;2.30;;;;;;;3.12;100.00;99063.59;15344842;19;20151;-54
2022/01/28 03:10:48;;;;;;;6.27;2.53;;;;;;;3.17;100.00;99045.75;15344897;19;20814;-51
2022/01/28 03:15:55;;;;;;;8.93;2.90;;;;;;;3.17;100.00;99045.75;15319867;19;20189;-54
2022/01/28 03:21:18;;;;;;;7.47;2.57;;;;;;;3.15;100.00;99042.31;15322703;19;20156;-53
2022/01/28 03:36:15;;;;;;;8.07;2.60;;;;;;;2.88;100.00;99054.38;15337237;19;20474;-52
2022/01/28 03:41:19;;;;;;;5.80;2.23;;;;;;;2.71;100.00;99051.78;15324320;19;20284;-53
2022/01/28 03:46:24;;;;;;;8.17;2.57;;;;;;;2.63;100.00;99040.78;15343986;19;20618;-54
2022/01/28 03:56:23;;;;;;;7.97;2.40;;;;;;;2.52;100.00;99065.91;15189451;19;3014175;-55
2022/01/28 04:11:47;;;;;;;6.80;2.50;;;;;;;2.36;100.00;99061.50;15349724;19;20135;-52
2022/01/28 04:27:02;;;;;;;5.53;2.60;;;;;;;2.23;100.00;99050.75;15165830;19;2977548;-51
2022/01/28 04:32:07;;;;;;;6.67;2.80;;;;;;;2.25;100.00;99080.47;15349981;19;20159;-51
2022/01/28 04:37:21;;;;;;;5.07;2.80;;;;;;;2.27;100.00;99083.88;15349239;19;20696;-50
2022/01/28 04:47:27;;;;;;;5.63;3.00;;;;;;;2.32;100.00;99097.63;15165305;19;2968200;-55
2022/01/28 04:57:36;;;;;;;7.83;3.87;;;;;;;2.37;100.00;99095.63;15344153;19;20489;-53
2022/01/28 05:03:00;;;;;;;3.60;2.20;;;;;;;2.43;100.00;99111.09;15349647;19;20154;-54
2022/01/28 05:29:13;;;;;;;3.97;1.53;;;;;;;2.67;100.00;99129.22;15332936;19;20925;-53
2022/01/28 05:34:18;;;;;;;3.23;1.60;;;;;;;2.73;100.00;99116.59;15325289;19;20155;-51
2022/01/28 05:44:22;;;;;;;4.20;1.50;;;;;;;2.92;100.00;99158.66;15344229;19;20452;-53
2022/01/28 05:49:26;;;;;;;2.20;1.77;;;;;;;2.98;100.00;99168.03;15350069;19;20139;-50
2022/01/28 05:54:31;;;;;;;2.10;1.53;;;;;;;3.00;100.00;99147.72;15320031;19;20181;-55
2022/01/28 05:59:35;;;;;;;3.30;1.57;;;;;;;3.00;100.00;99180.19;15338528;19;20625;-51
2022/01/28 06:04:39;;;;;;;4.97;1.60;;;;;;;2.96;100.00;99186.53;15348326;19;22265;-52
2022/01/28 06:14:42;;;;;;;2.83;1.60;;;;;;;2.89;100.00;99182.53;15328278;19;20499;-53
2022/01/28 06:19:46;;;;;;;4.07;1.40;;;;;;;2.88;100.00;99197.50;15325902;19;20235;-54
2022/01/28 06:24:51;;;;;;;3.27;1.67;;;;;;;2.90;100.00;99205.28;15340436;19;20173;-54
2022/01/28 06:29:55;;;;;;;3.13;1.80;;;;;;;2.87;100.00;99221.28;15340430;19;20166;-53
2022/01/28 06:39:58;;;;;;;1.93;1.43;;;;;;;2.89;100.00;99229.97;15307155;19;20471;-55
2022/01/28 06:45:02;;;;;;;4.10;1.90;;;;;;;2.84;100.00;99240.72;15333616;19;20157;-55
2022/01/28 06:50:08;;;;;;;3.57;1.90;;;;;;;2.82;100.00;99246.97;15341342;19;20151;-54
2022/01/28 06:55:16;;;;;;;4.33;1.67;;;;;;;2.73;100.00;99260.63;15346338;19;20204;-53
2022/01/28 07:00:21;;;;;;;2.93;1.73;;;;;;;2.73;100.00;99260.63;15320901;19;20193;-55
2022/01/28 07:05:25;;;;;;;3.53;1.67;;;;;;;2.73;100.00;99281.69;15330577;19;20165;-54
2022/01/28 07:10:30;;;;;;;4.33;1.80;;;;;;;2.71;100.00;99300.19;15347150;19;20287;-53
2022/01/28 07:15:34;;;;;;;3.97;2.20;;;;;;;2.67;100.00;99297.78;15346336;19;20136;-51
2022/01/28 07:20:39;;;;;;;5.53;2.70;;;;;;;2.65;100.00;99307.56;15338828;19;20182;-56
2022/01/28 07:25:43;;;;;;;4.33;2.97;;;;;;;2.63;100.00;99317.31;15319454;19;20149;-56
2022/01/28 07:30:48;;;;;;;3.07;2.73;;;;;;;2.60;100.00;99335.88;15341735;19;20176;-55
2022/01/28 07:35:52;;;;;;;4.20;2.87;;;;;;;2.60;100.00;99347.25;15344238;19;20533;-56
2022/01/28 07:40:58;;;;;;;3.90;2.70;;;;;;;2.58;100.00;99350.91;15345642;19;20216;-55
2022/01/28 07:46:03;;;;;;;3.93;3.40;;;;;;;2.54;100.00;99377.38;15319678;19;21113;-54
2022/01/28 07:51:09;;;;;;;7.30;4.70;;;;;;;2.48;100.00;99393.47;15274388;19;20148;-55
2022/01/28 07:56:14;;;;;;;6.23;3.60;;;;;;;2.41;100.00;99381.53;15283621;19;20215;-53
2022/01/28 08:01:19;;;;;;;5.10;4.27;;;;;;;2.40;100.00;99410.53;15285707;19;20147;-54
2022/01/28 08:06:25;;;;;;;3.70;3.30;;;;;;;2.32;100.00;99434.56;15271174;19;20147;-56
2022/01/28 08:16:27;;;;;;;6.37;3.40;;;;;;;2.26;100.00;99450.66;15343679;19;20494;-52
2022/01/28 08:21:31;;;;;;;4.27;3.60;;;;;;;2.27;100.00;99460.25;15348583;19;20497;-52
2022/01/28 08:26:36;;;;;;;3.60;2.90;;;;;;;2.21;100.00;99478.94;15348830;19;20634;-55
2022/01/28 08:31:41;;;;;;;5.10;3.63;;;;;;;2.28;100.00;99480.38;15320131;19;20154;-53
2022/01/28 08:36:46;;;;;;;2.80;2.60;;;;;;;2.19;100.00;99528.13;15338202;19;20258;-52
2022/01/28 08:51:48;;;;;;;3.37;2.43;;;;;;;2.12;100.00;99534.59;15329098;19;20468;-54
2022/01/28 08:56:52;;;;;;;3.50;3.03;;;;;;;2.16;100.00;99570.41;15324237;19;20146;-52
2022/01/28 09:02:13;;;;;;;2.23;2.13;;;;;;;2.15;100.00;99584.47;15350021;19;20173;-53
2022/01/28 09:07:19;;;;;;;3.20;2.63;;;;;;;2.12;100.00;100053.06;15347897;19;20143;-52
2022/01/28 09:12:35;;;;;;;2.87;2.53;;;;;;;2.13;100.00;100023.19;15345153;19;20174;-53
2022/01/28 09:17:39;;;;;;;4.17;2.40;;;;;;;2.08;100.00;99967.22;15322577;19;20155;-54
2022/01/28 09:22:44;;;;;;;3.10;2.80;;;;;;;2.14;100.00;99940.69;15341357;19;20637;-53
2022/01/28 09:27:48;;;;;;;5.07;3.20;;;;;;;2.17;100.00;99914.25;15346869;19;20155;-52
2022/01/28 09:32:53;;;;;;;5.57;3.43;;;;;;;2.20;100.00;99919.41;15347134;19;20218;-53
2022/01/28 09:37:58;;;;;;;6.40;4.90;;;;;;;2.13;100.00;99866.13;15324735;19;20150;-50
2022/01/28 09:48:01;;;;;;;16.53;14.80;;;;;;;2.16;100.00;99804.63;15344451;19;20543;-51
2022/01/28 09:53:06;;;;;;;4.00;3.20;;;;;;;2.11;100.00;99772.34;15350533;19;20162;-52
2022/01/28 09:58:10;;;;;;;4.07;3.67;;;;;;;2.13;100.00;99786.31;15341384;19;20558;-51
2022/01/28 10:03:17;;;;;;;3.23;2.77;;;;;;;2.10;100.00;99754.84;15323187;19;20147;-51
2022/01/28 10:08:27;;;;;;;3.80;2.83;;;;;;;2.11;100.00;99740.78;15345690;19;20155;-51
2022/01/28 10:18:39;;;;;;;4.57;3.50;;;;;;;2.24;100.00;99693.78;15194210;19;2921121;-53
2022/01/28 10:23:44;;;;;;;3.27;2.97;;;;;;;2.37;100.00;99676.56;15325695;19;20157;-53
2022/01/28 10:28:55;;;;;;;2.87;2.10;;;;;;;2.75;100.00;99719.75;15338086;19;20173;-53
2022/01/28 10:34:24;;;;;;;3.60;3.03;;;;;;;3.38;100.00;99836.56;15349704;19;20161;-55
2022/01/28 10:44:31;;;;;;;2.53;2.33;;;;;;;6.69;100.00;99748.47;15327944;19;20576;-51
2022/01/28 10:54:30;;;;;;;3.13;2.80;;;;;;;6.02;100.00;99773.47;15195299;19;2893441;-51
2022/01/28 10:59:41;;;;;;;4.77;3.07;;;;;;;5.73;100.00;99792.66;15348599;19;20159;-50
2022/01/28 11:09:43;;;;;;;2.93;2.63;;;;;;;5.68;100.00;99815.84;15318187;19;20503;-54
2022/01/28 11:14:48;;;;;;;2.53;2.33;;;;;;;5.17;100.00;99827.34;15341518;19;20162;-51
2022/01/28 11:25:19;;;;;;;3.03;2.60;;;;;;;5.24;100.00;99866.63;15196899;19;2885778;-55
2022/01/28 11:30:25;;;;;;;2.13;2.00;;;;;;;5.07;100.00;99872.72;15328351;19;20160;-54
2022/01/28 11:35:44;;;;;;;2.53;2.27;;;;;;;5.45;100.00;99888.47;15333534;19;20150;-51
2022/01/28 11:40:54;;;;;;;3.07;2.77;;;;;;;5.37;100.00;99904.75;15347613;19;20159;-51
2022/01/28 11:46:19;;;;;;;8.00;5.03;;;;;;;5.33;100.00;99921.69;15347776;19;20139;-50
2022/01/28 11:51:41;;;;;;;3.27;2.10;;;;;;;5.34;100.00;99918.13;15332825;19;20140;-54
2022/01/28 11:57:01;;;;;;;4.03;1.60;;;;;;;5.43;100.00;99927.41;15326891;19;20171;-53
2022/01/28 12:02:11;;;;;;;2.87;1.70;;;;;;;5.62;100.00;99949.38;15345250;19;20177;-50
2022/01/28 12:07:20;;;;;;;2.70;2.07;;;;;;;5.76;100.00;99952.19;15349386;19;20167;-55
2022/01/28 12:12:46;;;;;;;2.90;1.20;;;;;;;5.92;100.00;99972.63;15342046;19;20140;-53
2022/01/28 12:17:52;;;;;;;1.83;1.57;;;;;;;5.96;100.00;99984.78;15319878;19;20145;-52
2022/01/28 12:23:13;;;;;;;1.83;1.30;;;;;;;6.00;100.00;99989.84;15339031;19;20176;-51
2022/01/28 12:28:33;;;;;;;2.13;1.50;;;;;;;5.68;100.00;99995.84;15346312;19;20273;-52
2022/01/28 12:33:41;;;;;;;2.53;1.33;;;;;;;5.50;100.00;100028.53;15315593;19;20140;-52
2022/01/28 12:43:41;;;;;;;1.63;1.30;;;;;;;5.88;100.00;100038.13;15182833;19;2921543;-50
2022/01/28 12:48:50;;;;;;;1.53;1.20;;;;;;;5.63;100.00;100053.47;15350131;19;20581;-55
2022/01/28 12:53:57;;;;;;;1.03;0.90;;;;;;;5.78;100.00;100050.09;15350488;19;20192;-54
2022/01/28 12:59:02;;;;;;;2.53;1.43;;;;;;;5.79;100.00;100073.84;15332088;19;20200;-50
2022/01/28 13:04:13;;;;;;;1.67;1.40;;;;;;;5.66;100.00;100066.56;15326797;19;20149;-54
2022/01/28 13:09:19;;;;;;;2.10;1.37;;;;;;;5.82;100.00;100082.53;15348492;19;20744;-54
2022/01/28 13:14:30;;;;;;;1.30;1.10;;;;;;;5.81;100.00;100086.97;15349922;19;20140;-54
2022/01/28 13:19:38;;;;;;;2.90;1.90;;;;;;;5.63;100.00;100088.75;15342930;19;20140;-52
2022/01/28 13:24:43;;;;;;;1.80;1.20;;;;;;;5.80;100.00;100109.94;15320791;19;20159;-52
2022/01/28 13:34:55;;;;;;;1.90;1.30;;;;;;;5.72;100.00;100104.19;15345278;19;20983;-50
2022/01/28 13:40:00;;;;;;;2.20;1.57;;;;;;;5.71;100.00;100122.78;15350208;19;20139;-54
2022/01/28 13:45:08;;;;;;;3.23;1.80;;;;;;;5.88;100.00;100141.41;15325952;19;20949;-56
2022/01/28 13:50:13;;;;;;;3.33;1.80;;;;;;;5.80;100.00;100132.91;15332182;19;20827;-51
2022/01/28 13:55:34;;;;;;;2.10;1.87;;;;;;;5.71;100.00;100176.56;15348967;19;20145;-51
2022/01/28 14:00:45;;;;;;;3.37;2.30;;;;;;;6.02;100.00;100164.59;15349840;19;20165;-52
2022/01/28 14:06:01;;;;;;;4.27;1.90;;;;;;;6.12;100.00;100160.56;15335041;19;20141;-53
2022/01/28 14:11:41;;;;;;;3.07;2.00;;;;;;;6.04;100.00;100178.59;15321478;19;20167;-52
2022/01/28 14:16:48;;;;;;;4.07;2.37;;;;;;;5.62;100.00;100216.72;15336312;19;20164;-54
2022/01/28 14:21:53;;;;;;;4.20;2.47;;;;;;;5.64;100.00;100206.06;15338853;19;20805;-54
2022/01/28 14:27:12;;;;;;;3.70;2.03;;;;;;;5.49;100.00;100276.44;15336897;19;20157;-53
2022/01/28 14:32:18;;;;;;;3.67;2.30;;;;;;;5.43;100.00;100245.78;15312879;19;20266;-52
2022/01/28 14:37:26;;;;;;;1.57;1.27;;;;;;;5.29;100.00;100268.50;15333760;19;20220;-53
2022/01/28 14:42:31;;;;;;;1.47;1.20;;;;;;;5.26;100.00;100269.50;15321815;19;20149;-54
2022/01/28 14:47:36;;;;;;;3.20;1.87;;;;;;;5.44;100.00;100288.97;15281055;19;20137;-55
2022/01/28 14:52:40;;;;;;;4.63;1.80;;;;;;;5.50;100.00;100315.19;15255929;19;20611;-52
2022/01/28 14:57:45;;;;;;;3.93;1.50;;;;;;;5.34;100.00;100315.00;15266417;19;20164;-54
2022/01/28 15:02:49;;;;;;;2.57;1.40;;;;;;;5.42;100.00;100317.31;15279588;19;20789;-56
2022/01/28 15:12:48;;;;;;;1.70;1.30;;;;;;;5.12;100.00;100335.34;15181099;19;2882539;-56
2022/01/28 15:22:47;;;;;;;2.27;1.60;;;;;;;5.22;100.00;100363.13;15189833;19;2878702;-56
2022/01/28 15:27:52;;;;;;;3.47;1.80;;;;;;;5.16;100.00;100379.28;15349125;19;20185;-56
2022/01/28 15:38:15;;;;;;;2.10;1.60;;;;;;;5.09;100.00;100398.94;15323031;19;20141;-53
2022/01/28 15:43:20;;;;;;;2.80;2.20;;;;;;;5.18;100.00;100403.03;15335647;19;20151;-53
2022/01/28 15:48:24;;;;;;;2.50;1.70;;;;;;;5.04;100.00;100406.22;15345252;19;20170;-52
2022/01/28 15:53:29;;;;;;;4.27;2.37;;;;;;;5.10;100.00;100421.81;15344031;19;20773;-52
2022/01/28 15:58:34;;;;;;;2.80;2.53;;;;;;;4.55;100.00;100428.41;15327005;19;20143;-56
2022/01/28 16:03:38;;;;;;;4.50;2.40;;;;;;;4.51;100.00;100443.50;15322863;19;20740;-56
2022/01/28 16:08:49;;;;;;;2.23;1.80;;;;;;;4.21;100.00;100460.50;15343265;19;20185;-53
2022/01/28 16:14:13;;;;;;;3.07;1.53;;;;;;;3.82;100.00;100484.75;15339968;19;20144;-52
2022/01/28 16:19:18;;;;;;;2.97;1.63;;;;;;;3.75;100.00;100480.56;15332761;19;20323;-58
2022/01/28 16:24:26;;;;;;;3.37;1.57;;;;;;;3.65;100.00;100487.06;15312515;19;20176;-56
2022/01/28 16:29:31;;;;;;;3.87;1.83;;;;;;;3.62;100.00;100513.59;15334975;19;20595;-54
2022/01/28 16:34:36;;;;;;;4.23;2.00;;;;;;;3.61;100.00;100491.63;15283031;19;20164;-52
2022/01/28 16:44:53;;;;;;;2.47;1.87;;;;;;;3.51;100.00;100513.03;15315657;19;20475;-52
2022/01/28 16:49:58;;;;;;;1.97;1.23;;;;;;;3.44;100.00;100551.09;15334919;19;20185;-55
2022/01/28 16:55:05;;;;;;;1.97;1.50;;;;;;;3.54;100.00;100541.97;15348259;19;20145;-53
2022/01/28 17:00:11;;;;;;;5.10;2.60;;;;;;;3.74;100.00;100581.81;15344760;19;20156;-56
2022/01/28 17:05:16;;;;;;;4.13;2.07;;;;;;;4.02;100.00;100567.69;15333083;19;20224;-50
2022/01/28 17:15:18;;;;;;;4.50;2.77;;;;;;;4.09;100.00;100556.88;15339169;19;20462;-55
2022/01/28 17:20:23;;;;;;;3.07;1.97;;;;;;;3.98;100.00;100570.41;15345686;19;20161;-51
2022/01/28 17:25:28;;;;;;;4.67;2.30;;;;;;;3.90;100.00;100580.38;15342399;19;20142;-51
2022/01/28 17:30:33;;;;;;;3.77;2.20;;;;;;;3.78;100.00;100583.41;15308275;19;20150;-54
2022/01/28 17:35:37;;;;;;;4.33;2.60;;;;;;;3.73;100.00;100605.59;15334735;19;20190;-54
2022/01/28 17:40:42;;;;;;;3.93;2.30;;;;;;;3.86;100.00;100613.09;15342449;19;20162;-53
2022/01/28 17:50:42;;;;;;;5.20;2.30;;;;;;;3.85;100.00;100632.47;15166978;19;2952976;-55
2022/01/28 17:56:06;;;;;;;6.23;2.57;;;;;;;3.77;100.00;100633.59;15320863;19;20161;-55
2022/01/28 18:01:10;;;;;;;4.77;2.57;;;;;;;3.83;100.00;100659.81;15337320;19;20616;-53
2022/01/28 18:06:15;;;;;;;5.30;1.83;;;;;;;3.85;100.00;100656.22;15332311;19;20188;-54
2022/01/28 18:11:20;;;;;;;2.63;2.00;;;;;;;3.72;100.00;100689.19;15322618;19;20256;-53
2022/01/28 18:16:24;;;;;;;5.87;2.00;;;;;;;3.72;100.00;100694.47;15309995;19;20166;-52
2022/01/28 18:21:29;;;;;;;3.13;2.00;;;;;;;3.80;100.00;100687.16;15335314;19;20541;-53
2022/01/28 18:26:35;;;;;;;6.13;2.20;;;;;;;3.85;100.00;100695.81;15337631;19;20184;-52
2022/01/28 18:31:40;;;;;;;3.30;2.03;;;;;;;3.86;100.00;100705.47;15332700;19;20202;-51
2022/01/28 18:47:07;;;;;;;3.93;2.30;;;;;;;3.79;100.00;100740.88;15174994;19;2907798;-54
2022/01/28 18:52:15;;;;;;;2.57;1.70;;;;;;;3.90;100.00;100748.47;15329652;19;20257;-53
2022/01/28 18:57:20;;;;;;;3.50;2.23;;;;;;;3.78;100.00;100772.59;15313369;19;20160;-55
2022/01/28 19:02:28;;;;;;;2.73;2.00;;;;;;;3.79;100.00;100754.06;15307714;19;20157;-54
2022/01/28 19:07:34;;;;;;;2.50;1.93;;;;;;;3.72;100.00;100784.22;15334992;19;20171;-53
2022/01/28 19:12:40;;;;;;;3.40;1.73;;;;;;;3.83;100.00;100797.97;15333168;19;20579;-53
2022/01/28 19:17:45;;;;;;;3.13;2.07;;;;;;;3.77;100.00;100782.28;15330895;19;20158;-53
2022/01/28 19:27:48;;;;;;;3.20;2.10;;;;;;;3.80;100.00;100792.75;15319992;19;21039;-51
2022/01/28 19:32:53;;;;;;;3.47;1.70;;;;;;;3.65;100.00;100795.81;15335934;19;20481;-54
2022/01/28 19:37:57;;;;;;;4.10;2.27;;;;;;;3.59;100.00;100819.75;15337557;19;20164;-55
2022/01/28 19:43:02;;;;;;;4.33;2.93;;;;;;;3.62;100.00;100838.16;15311159;19;20156;-52
2022/01/28 19:58:02;;;;;;;3.83;2.57;;;;;;;3.48;100.00;100859.63;15334401;19;20799;-52
2022/01/28 20:03:06;;;;;;;3.43;2.20;;;;;;;3.54;100.00;100869.16;15323143;19;20194;-55
2022/01/28 20:08:11;;;;;;;5.63;3.03;;;;;;;3.36;100.00;100853.81;15303566;19;20171;-51
2022/01/28 20:13:16;;;;;;;6.20;2.80;;;;;;;3.28;100.00;100866.31;15333474;19;20178;-53
2022/01/28 20:18:21;;;;;;;5.37;2.80;;;;;;;3.36;100.00;100874.91;15338016;19;20150;-55
2022/01/28 20:23:26;;;;;;;5.60;2.40;;;;;;;3.32;100.00;100889.09;15338394;19;20646;-51
2022/01/28 20:28:31;;;;;;;7.47;3.73;;;;;;;3.37;100.00;100895.13;15309355;19;20588;-53
2022/01/28 20:33:36;;;;;;;7.43;3.50;;;;;;;3.38;100.00;100910.03;15321868;19;20149;-53
2022/01/28 20:38:41;;;;;;;7.47;3.90;;;;;;;3.20;100.00;100906.94;15333063;19;20197;-52
2022/01/28 20:43:49;;;;;;;6.13;3.83;;;;;;;3.21;100.00;100924.50;15333532;19;20177;-54
2022/01/28 20:48:54;;;;;;;8.00;3.77;;;;;;;3.36;100.00;100935.59;15316031;19;20163;-54
2022/01/28 20:53:59;;;;;;;6.10;3.00;;;;;;;3.32;100.00;100942.69;15303832;19;20176;-53
2022/01/28 20:59:04;;;;;;;6.90;3.00;;;;;;;3.31;100.00;100988.44;15334566;19;20158;-54
2022/01/28 21:04:08;;;;;;;4.37;2.50;;;;;;;3.21;100.00;100993.06;15335165;19;20142;-54
2022/01/28 21:19:08;;;;;;;5.77;2.70;;;;;;;3.23;100.00;101006.22;15315659;19;20502;-55
2022/01/28 21:24:14;;;;;;;5.77;2.67;;;;;;;2.86;100.00;101016.72;15331663;19;20155;-55
2022/01/28 21:29:19;;;;;;;5.10;2.60;;;;;;;2.64;100.00;101026.00;15335024;19;20155;-54
2022/01/28 21:34:27;;;;;;;7.20;3.33;;;;;;;2.57;100.00;101013.81;15315197;19;20584;-56
2022/01/28 21:39:32;;;;;;;8.80;3.43;;;;;;;2.40;100.00;101028.22;15315721;19;20195;-55
2022/01/28 21:49:35;;;;;;;5.33;2.73;;;;;;;2.25;100.00;101044.31;15332632;19;20490;-54
2022/01/28 21:54:39;;;;;;;5.20;3.43;;;;;;;2.18;100.00;101047.94;15334628;19;20141;-57
2022/01/28 21:59:44;;;;;;;4.87;3.00;;;;;;;2.15;100.00;101050.66;15309449;19;20164;-58
2022/01/28 22:04:49;;;;;;;7.07;3.40;;;;;;;2.09;100.00;101053.38;15337517;19;20144;-56
2022/01/28 22:09:54;;;;;;;6.07;3.00;;;;;;;2.06;100.00;101064.81;15344305;19;20176;-51
2022/01/28 22:19:53;;;;;;;7.63;3.57;;;;;;;2.10;100.00;101070.91;15166438;19;2882953;-52
2022/01/28 22:24:57;;;;;;;6.33;3.03;;;;;;;2.03;100.00;101069.28;15328385;19;20514;-53
2022/01/28 22:30:02;;;;;;;7.73;3.03;;;;;;;1.97;100.00;101070.25;15346413;19;20174;-56
2022/01/28 22:35:07;;;;;;;6.87;2.90;;;;;;;1.87;100.00;101073.06;15346518;19;20211;-52
2022/01/28 22:45:09;;;;;;;6.30;2.47;;;;;;;1.84;100.00;101068.72;15313804;19;20447;-54
2022/01/28 23:00:14;;;;;;;4.77;2.00;;;;;;;1.66;100.00;101067.28;15342194;19;20488;-56
2022/01/28 23:10:15;;;;;;;5.20;2.10;;;;;;;1.60;100.00;101064.72;15179701;19;2883706;-54
2022/01/28 23:15:19;;;;;;;5.40;1.90;;;;;;;1.56;100.00;101060.41;15346251;19;20945;-53
2022/01/28 23:20:24;;;;;;;6.13;1.80;;;;;;;1.50;100.00;101068.38;15346869;19;20216;-52
2022/01/28 23:25:28;;;;;;;3.27;1.93;;;;;;;1.52;100.00;101068.38;15328786;19;20180;-55
2022/01/28 23:30:33;;;;;;;3.13;1.73;;;;;;;1.43;100.00;101075.53;15319001;19;20148;-50
2022/01/28 23:35:37;;;;;;;6.63;1.90;;;;;;;1.35;100.00;101085.25;15343452;19;20148;-51
2022/01/28 23:50:34;;;;;;;5.37;2.10;;;;;;;1.36;100.00;101083.50;15159488;19;2877242;-54
